Time;durP1;ratioP1;P1;durP2;ratioP2;P2;SDS_P1;SDS_P2;PMS_P1;PMS_P2;Temp;Humidity;BMP_temperature;BMP_pressure;BME280_temperature;BME280_humidity;BME280_pressure;Samples;Min_cycle;Max_cycle;Signal;HPM_P1;HPM_P2
2021/03/29 00:02:04;;;;;;;2.47;1.00;;;;;;;11.83;65.66;101892.91;4823995;28;126416;-60
2021/03/29 00:04:30;;;;;;;2.65;0.80;;;;;;;11.82;65.18;101896.66;4823898;28;97869;-60
2021/03/29 00:06:57;;;;;;;2.95;1.10;;;;;;;11.83;65.41;101888.38;4806855;28;98604;-62
2021/03/29 00:09:24;;;;;;;3.78;1.00;;;;;;;11.82;65.60;101889.38;4822292;28;98626;-60
2021/03/29 00:11:50;;;;;;;3.38;1.00;;;;;;;11.82;65.60;101892.09;4791825;28;98149;-60
2021/03/29 00:14:16;;;;;;;2.67;1.05;;;;;;;11.81;65.63;101890.44;4807010;28;97883;-60
2021/03/29 00:16:42;;;;;;;3.08;1.15;;;;;;;11.80;65.28;101894.22;4805384;28;128359;-62
2021/03/29 00:19:09;;;;;;;3.03;1.00;;;;;;;11.79;65.46;101898.81;4821424;28;127753;-60
2021/03/29 00:21:36;;;;;;;3.35;0.90;;;;;;;11.80;65.68;101900.44;4821938;28;98851;-60
2021/03/29 00:24:03;;;;;;;2.70;0.90;;;;;;;11.80;65.84;101899.63;4822255;28;97822;-62
2021/03/29 00:26:29;;;;;;;1.88;0.90;;;;;;;11.79;65.24;101898.00;4837890;28;99200;-62
2021/03/29 00:28:55;;;;;;;2.20;0.90;;;;;;;11.79;65.60;101904.22;4838398;28;122432;-62
2021/03/29 00:31:21;;;;;;;2.25;1.10;;;;;;;11.79;65.40;101895.28;4822605;28;127465;-63
2021/03/29 00:33:47;;;;;;;2.50;0.93;;;;;;;11.77;65.65;101906.31;4821691;28;113419;-62
2021/03/29 00:36:13;;;;;;;3.08;0.70;;;;;;;11.78;65.33;101902.53;4806567;28;99212;-62
2021/03/29 00:38:39;;;;;;;2.10;0.90;;;;;;;11.77;65.86;101902.81;4789601;28;128176;-60
2021/03/29 00:41:10;;;;;;;2.42;0.88;;;;;;;11.76;66.01;101906.56;4820912;28;127622;-62
2021/03/29 00:43:42;;;;;;;2.88;0.98;;;;;;;11.76;65.46;101901.16;4822959;28;97760;-62
2021/03/29 00:46:09;;;;;;;2.83;0.80;;;;;;;11.76;65.54;101898.47;4821558;28;99104;-60
2021/03/29 00:48:35;;;;;;;3.28;1.00;;;;;;;11.76;66.25;101901.16;4821823;28;97832;-60
2021/03/29 00:51:21;;;;;;;2.58;0.90;;;;;;;11.72;65.64;101900.81;4821437;28;98120;-62
2021/03/29 00:53:51;;;;;;;2.72;0.88;;;;;;;11.74;66.01;101908.69;4803889;29;98425;-62
2021/03/29 00:56:17;;;;;;;1.65;0.80;;;;;;;11.75;66.70;101903.06;4803144;29;98676;-62
2021/03/29 00:58:47;;;;;;;2.47;0.98;;;;;;;11.75;66.04;101910.31;4805609;28;100061;-60
2021/03/29 01:01:25;;;;;;;2.63;0.98;;;;;;;11.72;66.07;101908.94;4807037;28;98065;-60
2021/03/29 01:03:56;;;;;;;2.92;0.90;;;;;;;11.73;66.57;101910.56;4821929;28;97810;-60
2021/03/29 01:06:29;;;;;;;4.03;0.80;;;;;;;11.72;66.52;101913.50;4822435;28;98838;-63
2021/03/29 01:09:00;;;;;;;3.10;0.88;;;;;;;11.73;66.25;101910.56;4823150;28;98471;-62
2021/03/29 01:11:30;;;;;;;2.00;0.85;;;;;;;11.75;65.96;101908.44;4806573;28;97945;-60
2021/03/29 01:14:08;;;;;;;2.55;0.68;;;;;;;11.83;65.69;101911.81;4822283;28;97911;-60
2021/03/29 01:16:40;;;;;;;2.72;1.10;;;;;;;11.85;65.30;101913.25;4821006;28;107846;-61
2021/03/29 01:19:11;;;;;;;3.30;1.00;;;;;;;11.91;65.68;101908.78;4836905;28;98411;-62
2021/03/29 01:21:43;;;;;;;3.17;1.02;;;;;;;11.91;65.60;101900.69;4820630;28;108989;-62
2021/03/29 01:24:18;;;;;;;2.35;1.00;;;;;;;11.94;65.48;101905.56;4824338;28;98112;-62
2021/03/29 01:26:45;;;;;;;2.35;0.70;;;;;;;11.93;65.58;101907.47;4821253;28;98336;-62
2021/03/29 01:29:16;;;;;;;2.03;0.98;;;;;;;11.95;65.46;101905.34;4820844;28;98512;-60
2021/03/29 01:31:42;;;;;;;2.88;1.10;;;;;;;11.97;65.45;101903.22;4821064;28;101767;-60
2021/03/29 01:34:09;;;;;;;1.92;0.60;;;;;;;11.95;65.26;101897.25;4822148;28;98166;-61
2021/03/29 01:36:35;;;;;;;2.47;0.95;;;;;;;11.95;65.46;101902.66;4820574;28;116204;-60
2021/03/29 01:39:01;;;;;;;2.55;0.85;;;;;;;11.95;65.28;101902.66;4789548;28;99113;-62
2021/03/29 01:41:27;;;;;;;2.13;0.90;;;;;;;11.93;65.80;101907.47;4805160;28;97925;-62
2021/03/29 01:43:54;;;;;;;2.58;0.90;;;;;;;11.93;65.64;101902.06;4789725;28;118525;-61
2021/03/29 01:46:20;;;;;;;2.90;1.00;;;;;;;11.93;65.41;101912.06;4836485;28;113845;-61
2021/03/29 01:48:46;;;;;;;2.10;0.80;;;;;;;11.92;65.79;101910.41;4805956;28;98250;-60
2021/03/29 01:51:13;;;;;;;2.83;0.80;;;;;;;11.92;65.32;101905.81;4836608;28;98294;-62
2021/03/29 01:53:39;;;;;;;4.03;1.20;;;;;;;11.92;65.87;101913.94;4806780;28;97794;-62
2021/03/29 01:56:06;;;;;;;1.67;0.70;;;;;;;11.90;66.08;101910.63;4819762;28;118571;-62
2021/03/29 01:58:32;;;;;;;2.28;0.75;;;;;;;11.91;65.52;101912.31;4820680;28;123924;-62
2021/03/29 02:01:04;;;;;;;3.35;0.90;;;;;;;11.87;66.17;101911.16;4822519;28;107732;-60
2021/03/29 02:03:31;;;;;;;2.38;0.90;;;;;;;11.88;66.29;101906.56;4822839;28;98958;-63
2021/03/29 02:05:57;;;;;;;2.33;0.80;;;;;;;11.86;66.20;101904.06;4835933;28;99269;-62
2021/03/29 02:08:24;;;;;;;2.22;0.68;;;;;;;11.85;66.00;101909.72;4820913;28;98139;-61
2021/03/29 02:10:50;;;;;;;2.25;0.73;;;;;;;11.84;66.24;101900.81;4823315;28;98052;-60
2021/03/29 02:13:20;;;;;;;2.92;0.77;;;;;;;11.84;66.13;101903.50;4807701;28;98041;-60
2021/03/29 02:15:49;;;;;;;2.72;0.82;;;;;;;11.83;66.37;101899.19;4822673;28;117034;-60
2021/03/29 02:18:24;;;;;;;2.70;0.80;;;;;;;11.80;65.99;101896.91;4826157;28;97962;-63
2021/03/29 02:20:50;;;;;;;2.08;0.80;;;;;;;11.79;66.32;101906.91;4825453;28;98021;-62
2021/03/29 02:23:20;;;;;;;2.72;0.95;;;;;;;11.78;65.83;101904.44;4822545;28;103790;-61
2021/03/29 02:25:47;;;;;;;2.08;0.70;;;;;;;11.79;66.48;101901.50;4823018;28;112102;-60
2021/03/29 02:28:13;;;;;;;1.85;0.82;;;;;;;11.78;66.16;101897.16;4808202;28;111056;-60
2021/03/29 02:30:42;;;;;;;2.90;0.85;;;;;;;11.77;66.09;101905.50;4824653;28;128496;-63
2021/03/29 02:33:12;;;;;;;2.75;1.05;;;;;;;11.77;66.00;101898.22;4826061;28;98164;-62
2021/03/29 02:35:38;;;;;;;1.70;0.80;;;;;;;11.76;65.88;101901.16;4823667;28;98862;-62
2021/03/29 02:38:07;;;;;;;2.30;0.70;;;;;;;11.75;66.35;101899.50;4824573;28;98847;-62
2021/03/29 02:40:33;;;;;;;2.45;0.90;;;;;;;11.73;66.52;101898.94;4823692;28;97887;-60
2021/03/29 02:42:59;;;;;;;2.83;0.77;;;;;;;11.72;66.11;101903.53;4822863;28;108637;-62
2021/03/29 02:45:29;;;;;;;2.25;0.65;;;;;;;11.74;66.35;101898.69;4808089;28;98242;-62
2021/03/29 02:48:07;;;;;;;2.25;0.60;;;;;;;11.72;65.64;101905.41;4825872;28;99836;-60
2021/03/29 02:50:34;;;;;;;2.75;0.80;;;;;;;11.72;66.33;101900.00;4824316;28;117681;-62
2021/03/29 02:53:07;;;;;;;2.28;0.60;;;;;;;11.71;66.51;101903.75;4825427;28;97640;-62
2021/03/29 02:55:33;;;;;;;2.67;0.82;;;;;;;11.72;66.51;101891.91;4823212;28;100398;-62
2021/03/29 02:58:00;;;;;;;3.33;0.77;;;;;;;11.72;66.43;101897.31;4792264;28;98039;-60
2021/03/29 03:00:28;;;;;;;2.70;1.05;;;;;;;11.70;65.90;101902.13;4823248;28;98490;-62
2021/03/29 03:02:57;;;;;;;2.58;0.70;;;;;;;11.69;66.41;101905.88;4823494;28;98421;-60
2021/03/29 03:05:30;;;;;;;2.72;0.95;;;;;;;11.70;65.78;101896.72;4825446;28;97913;-62
2021/03/29 03:07:58;;;;;;;1.88;0.70;;;;;;;11.68;66.21;101907.78;4822484;28;102431;-63
2021/03/29 03:10:26;;;;;;;2.78;0.70;;;;;;;11.70;66.37;101911.03;4824784;28;118584;-63
2021/03/29 03:12:52;;;;;;;1.85;0.68;;;;;;;11.67;66.00;101910.69;4824893;28;105959;-62
2021/03/29 03:15:21;;;;;;;4.15;0.85;;;;;;;11.69;65.74;101908.59;4821281;28;128603;-60
2021/03/29 03:17:47;;;;;;;4.05;0.90;;;;;;;11.69;65.51;101914.00;4824831;28;98815;-60
2021/03/29 03:20:15;;;;;;;3.97;1.08;;;;;;;11.68;66.15;101906.94;4825344;28;98050;-60
2021/03/29 03:23:04;;;;;;;2.45;0.90;;;;;;;11.68;65.50;101907.78;4824582;28;97848;-62
2021/03/29 03:25:38;;;;;;;3.28;1.00;;;;;;;11.67;66.13;101899.88;4822696;28;98066;-62
2021/03/29 03:28:07;;;;;;;2.22;0.73;;;;;;;11.68;65.88;101913.16;4823204;28;113478;-63
2021/03/29 03:30:36;;;;;;;4.00;0.90;;;;;;;11.68;65.75;101912.34;4823870;28;117773;-62
2021/03/29 03:33:04;;;;;;;2.65;0.93;;;;;;;11.67;66.00;101908.00;4826028;28;97770;-60
2021/03/29 03:35:30;;;;;;;2.47;0.63;;;;;;;11.68;65.10;101915.06;4824178;28;99165;-62
2021/03/29 03:38:01;;;;;;;2.00;0.70;;;;;;;11.65;65.47;101915.53;4823428;28;123819;-61
2021/03/29 03:40:28;;;;;;;2.78;0.90;;;;;;;11.64;66.17;101916.59;4807100;28;99278;-63
2021/03/29 03:42:58;;;;;;;2.58;0.98;;;;;;;11.66;65.55;101917.16;4822469;28;97796;-60
2021/03/29 03:45:30;;;;;;;2.65;1.00;;;;;;;11.64;65.45;101920.13;4824520;28;98313;-62
2021/03/29 03:47:57;;;;;;;3.58;0.80;;;;;;;11.66;65.68;101926.06;4823442;28;98495;-61
2021/03/29 03:50:23;;;;;;;2.10;0.77;;;;;;;11.67;65.66;101926.91;4805818;28;99841;-60
2021/03/29 03:52:49;;;;;;;2.55;0.70;;;;;;;11.65;66.07;101929.84;4821967;28;107997;-60
2021/03/29 03:55:16;;;;;;;2.30;0.80;;;;;;;11.65;66.11;101923.63;4822350;28;118750;-62
2021/03/29 03:57:42;;;;;;;2.13;0.73;;;;;;;11.60;65.93;101927.06;4823928;28;98536;-60
2021/03/29 04:00:12;;;;;;;2.65;0.80;;;;;;;11.63;65.61;101936.53;4822582;28;101151;-60
2021/03/29 04:02:38;;;;;;;4.18;0.80;;;;;;;11.57;65.42;101930.22;4823504;28;97989;-62
2021/03/29 04:05:06;;;;;;;3.78;0.70;;;;;;;11.59;65.74;101932.69;4824149;28;98712;-62
2021/03/29 04:07:32;;;;;;;2.17;0.65;;;;;;;11.59;65.33;101924.56;4822662;28;99364;-62
2021/03/29 04:10:06;;;;;;;1.92;0.73;;;;;;;11.57;65.69;101924.00;4823957;28;98690;-62
2021/03/29 04:12:33;;;;;;;2.50;0.80;;;;;;;11.54;65.75;101920.72;4823957;28;98179;-62
2021/03/29 04:14:59;;;;;;;3.55;0.95;;;;;;;11.51;65.91;101918.50;4824206;28;98233;-62
2021/03/29 04:17:25;;;;;;;4.65;0.90;;;;;;;11.51;65.82;101912.25;4823274;28;127975;-60
2021/03/29 04:19:51;;;;;;;3.15;0.90;;;;;;;11.46;66.23;101912.97;4822308;28;98065;-62
2021/03/29 04:22:17;;;;;;;4.32;0.82;;;;;;;11.45;66.01;101924.84;4822917;28;117268;-62
2021/03/29 04:24:43;;;;;;;3.65;0.90;;;;;;;11.42;65.67;101919.09;4823708;28;127046;-60
2021/03/29 04:27:09;;;;;;;3.35;0.82;;;;;;;11.40;66.09;101924.75;4822968;28;128279;-62
2021/03/29 04:29:35;;;;;;;3.00;0.90;;;;;;;11.38;66.48;101920.63;4823246;28;127777;-60
2021/03/29 04:32:01;;;;;;;3.53;0.90;;;;;;;11.38;66.34;101923.34;4824540;28;97850;-62
2021/03/29 04:34:27;;;;;;;3.22;0.82;;;;;;;11.38;67.07;101926.03;4823164;28;99220;-62
2021/03/29 04:36:53;;;;;;;4.60;0.90;;;;;;;11.38;66.08;101917.94;4823658;28;98136;-62
2021/03/29 04:39:20;;;;;;;3.05;0.90;;;;;;;11.37;66.53;101922.50;4823363;28;98101;-60
2021/03/29 04:41:46;;;;;;;3.72;0.70;;;;;;;11.35;66.76;101919.22;4821337;28;102047;-60
2021/03/29 04:44:12;;;;;;;3.45;0.75;;;;;;;11.34;66.59;101920.28;4823909;28;127337;-62
2021/03/29 04:46:38;;;;;;;2.25;0.80;;;;;;;11.34;67.08;101922.16;4822734;28;125059;-62
2021/03/29 04:49:04;;;;;;;3.35;1.02;;;;;;;11.36;66.06;101923.59;4823566;28;98049;-60
2021/03/29 04:51:30;;;;;;;2.58;0.80;;;;;;;11.33;66.45;101920.53;4822120;28;97763;-60
2021/03/29 04:53:56;;;;;;;3.40;0.80;;;;;;;11.38;66.29;101926.84;4821859;28;98696;-60
2021/03/29 04:56:23;;;;;;;3.38;0.77;;;;;;;11.37;66.64;101933.31;4823181;28;98912;-60
2021/03/29 04:58:49;;;;;;;2.90;0.90;;;;;;;11.38;66.06;101928.72;4823844;28;98598;-60
2021/03/29 05:01:15;;;;;;;3.28;0.80;;;;;;;11.38;66.75;101931.44;4824011;28;103204;-62
2021/03/29 05:03:41;;;;;;;3.47;0.73;;;;;;;11.39;66.48;101922.25;4821647;28;98591;-60
2021/03/29 05:06:07;;;;;;;3.55;1.00;;;;;;;11.41;66.14;101925.56;4820853;28;128733;-62
2021/03/29 05:08:33;;;;;;;3.20;0.90;;;;;;;11.41;66.81;101920.16;4821225;28;127435;-60
2021/03/29 05:10:59;;;;;;;3.40;1.05;;;;;;;11.44;66.42;101923.22;4821255;28;117295;-62
2021/03/29 05:13:25;;;;;;;2.80;0.80;;;;;;;11.45;66.89;101924.03;4824171;28;98193;-62
2021/03/29 05:15:51;;;;;;;3.75;0.70;;;;;;;11.49;66.71;101927.91;4819494;28;128254;-60
2021/03/29 05:18:18;;;;;;;4.40;0.93;;;;;;;11.50;66.39;101929.53;4805691;28;99182;-63
2021/03/29 05:20:44;;;;;;;4.30;0.75;;;;;;;11.54;66.47;101920.72;4818618;28;115732;-60
2021/03/29 05:23:10;;;;;;;4.22;0.98;;;;;;;11.58;66.25;101929.16;4829273;28;121517;-60
2021/03/29 05:25:36;;;;;;;2.35;0.73;;;;;;;11.63;66.76;101928.44;4837209;28;98853;-60
2021/03/29 05:28:02;;;;;;;3.63;0.60;;;;;;;11.65;66.50;101931.72;4833787;28;98257;-60
2021/03/29 05:30:28;;;;;;;2.22;0.77;;;;;;;11.70;66.42;101927.25;4836778;28;100884;-60
2021/03/29 05:32:54;;;;;;;2.53;0.80;;;;;;;11.72;66.49;101930.53;4839479;28;98560;-60
2021/03/29 05:35:20;;;;;;;3.22;0.70;;;;;;;11.73;66.26;101928.66;4838331;28;113639;-60
2021/03/29 05:37:46;;;;;;;3.65;1.00;;;;;;;11.75;66.74;101931.91;4833418;28;116812;-60
2021/03/29 05:40:17;;;;;;;3.42;0.75;;;;;;;11.79;66.30;101936.63;4830770;28;98349;-60
2021/03/29 05:42:43;;;;;;;3.08;0.82;;;;;;;11.83;66.69;101934.31;4829467;28;98428;-62
2021/03/29 05:45:10;;;;;;;2.60;0.80;;;;;;;11.89;66.39;101935.22;4833899;28;126791;-62
2021/03/29 05:47:38;;;;;;;2.30;0.77;;;;;;;11.96;66.36;101935.91;4831323;28;100672;-60
2021/03/29 05:50:07;;;;;;;2.78;0.80;;;;;;;11.97;66.13;101935.63;4841713;28;97919;-60
2021/03/29 05:52:33;;;;;;;3.47;1.00;;;;;;;12.02;66.25;101943.88;4837400;28;98497;-63
2021/03/29 05:55:00;;;;;;;4.30;1.00;;;;;;;12.08;65.83;101947.47;4836972;28;98935;-62
2021/03/29 05:57:26;;;;;;;3.13;0.80;;;;;;;12.17;65.78;101948.72;4841170;28;98692;-62
2021/03/29 05:59:52;;;;;;;1.88;0.82;;;;;;;12.33;65.99;101940.88;4839751;28;98313;-62
2021/03/29 06:02:32;;;;;;;4.15;0.70;;;;;;;12.47;64.74;101948.44;4831565;28;98373;-60
2021/03/29 06:04:59;;;;;;;2.63;0.80;;;;;;;12.59;65.16;101942.16;4829044;28;98188;-62
2021/03/29 06:07:27;;;;;;;2.60;1.00;;;;;;;12.71;65.29;101948.31;4834686;28;99082;-60
2021/03/29 06:09:55;;;;;;;3.30;0.80;;;;;;;12.78;64.96;101949.78;4842443;28;98415;-60
2021/03/29 06:12:22;;;;;;;3.13;1.02;;;;;;;12.85;65.02;101956.91;4837258;28;117172;-60
2021/03/29 06:15:01;;;;;;;2.53;0.90;;;;;;;12.86;64.44;101947.75;4834864;28;99116;-60
2021/03/29 06:17:27;;;;;;;2.22;0.90;;;;;;;12.95;64.92;101951.66;4840578;28;98325;-62
2021/03/29 06:19:53;;;;;;;2.70;0.75;;;;;;;12.94;65.06;101944.63;4838269;28;97808;-62
2021/03/29 06:22:26;;;;;;;4.70;1.00;;;;;;;13.00;65.03;101939.00;4837077;28;98161;-63
2021/03/29 06:25:18;;;;;;;3.28;1.02;;;;;;;13.08;64.25;101950.50;4840674;28;97955;-63
2021/03/29 06:27:58;;;;;;;3.90;1.20;;;;;;;13.16;64.53;101941.94;4834066;28;98335;-60
2021/03/29 06:30:35;;;;;;;3.78;1.00;;;;;;;13.34;63.45;101941.69;4841397;28;98115;-62
2021/03/29 06:33:15;;;;;;;3.60;1.00;;;;;;;13.54;62.74;101948.47;4830803;28;98304;-62
2021/03/29 06:35:47;;;;;;;3.38;1.00;;;;;;;13.67;63.36;101946.19;4831012;28;98455;-61
2021/03/29 06:38:13;;;;;;;;;;;;;;;13.88;62.07;101952.69;4834226;28;98684;-63
2021/03/29 06:40:45;;;;;;;3.25;0.93;;;;;;;13.86;63.28;101965.66;4841424;28;99126;-60
2021/03/29 06:43:25;;;;;;;5.47;1.10;;;;;;;14.07;62.25;101964.03;4841320;28;98719;-63
2021/03/29 06:46:05;;;;;;;3.70;1.05;;;;;;;14.21;61.80;101959.00;4840891;28;98846;-61
2021/03/29 06:48:36;;;;;;;2.95;0.70;;;;;;;14.25;61.41;101962.84;4841348;28;98532;-62
2021/03/29 06:51:22;;;;;;;2.78;1.15;;;;;;;14.40;60.74;101957.56;4841463;28;97915;-60
2021/03/29 06:54:06;;;;;;;3.13;1.05;;;;;;;14.58;62.19;101958.28;4841093;28;98503;-61
2021/03/29 06:56:51;;;;;;;4.28;0.90;;;;;;;14.76;62.75;101965.22;4839960;28;98401;-60
2021/03/29 06:59:23;;;;;;;3.10;0.95;;;;;;;14.86;63.18;101965.31;4834286;28;98518;-62
2021/03/29 07:01:58;;;;;;;3.35;0.80;;;;;;;14.97;63.95;101967.84;4841575;28;97977;-61
2021/03/29 07:04:25;;;;;;;2.35;0.82;;;;;;;15.01;63.39;101970.03;4840115;28;98921;-63
2021/03/29 07:06:52;;;;;;;3.00;0.80;;;;;;;15.15;63.06;101979.38;4836771;28;98497;-61
2021/03/29 07:09:19;;;;;;;2.85;0.80;;;;;;;15.22;63.14;101969.91;4841621;28;97791;-62
2021/03/29 07:11:46;;;;;;;2.72;0.70;;;;;;;15.32;63.42;101976.47;4840792;28;98106;-61
2021/03/29 07:14:13;;;;;;;3.42;0.90;;;;;;;15.36;63.24;101983.03;4840285;28;97906;-63
2021/03/29 07:16:42;;;;;;;2.28;0.65;;;;;;;15.30;63.75;101987.63;4840562;28;98344;-61
2021/03/29 07:19:09;;;;;;;4.20;1.05;;;;;;;15.22;63.54;101982.69;4823577;28;100028;-61
2021/03/29 07:21:36;;;;;;;3.78;1.10;;;;;;;15.19;63.93;101983.19;4840553;28;97780;-63
2021/03/29 07:24:10;;;;;;;4.07;0.93;;;;;;;15.21;63.92;101972.91;4832431;28;99881;-60
2021/03/29 07:26:43;;;;;;;3.95;1.00;;;;;;;15.18;64.55;101976.13;4834695;28;111523;-61
2021/03/29 07:29:29;;;;;;;4.63;1.08;;;;;;;15.13;65.10;101979.63;4838445;28;98121;-62
2021/03/29 07:31:59;;;;;;;4.32;1.02;;;;;;;15.15;64.64;101987.50;4839802;28;98115;-60
2021/03/29 07:35:00;;;;;;;4.22;0.90;;;;;;;15.30;65.17;101987.63;4852071;28;99788;-61
2021/03/29 07:37:43;;;;;;;3.42;1.05;;;;;;;15.29;64.25;101999.56;4818688;28;98590;-63
2021/03/29 07:40:18;;;;;;;4.18;1.00;;;;;;;15.32;64.92;102007.16;4838354;28;97880;-63
2021/03/29 07:42:54;;;;;;;3.65;1.00;;;;;;;15.33;64.82;102003.41;4838866;28;97811;-63
2021/03/29 07:45:40;;;;;;;4.40;1.02;;;;;;;15.37;64.69;102001.78;4840361;28;98836;-61
2021/03/29 07:48:06;;;;;;;3.67;0.90;;;;;;;15.42;64.34;102001.81;4840254;28;99186;-64
2021/03/29 07:50:44;;;;;;;3.80;1.00;;;;;;;15.46;64.29;102011.06;4836360;28;113455;-63
2021/03/29 07:53:20;;;;;;;2.38;0.90;;;;;;;15.56;64.58;102013.06;4840166;28;105589;-63
2021/03/29 07:55:52;;;;;;;3.22;0.90;;;;;;;15.70;64.54;102016.94;4839867;28;98281;-63
2021/03/29 07:58:19;;;;;;;4.32;1.20;;;;;;;15.91;64.05;102020.56;4840202;28;98890;-60
2021/03/29 08:00:48;;;;;;;3.53;0.98;;;;;;;16.28;63.65;102025.06;4840109;28;98173;-61
2021/03/29 08:03:14;;;;;;;4.15;0.98;;;;;;;16.61;62.23;102023.75;4838381;28;97996;-63
2021/03/29 08:05:44;;;;;;;3.38;0.90;;;;;;;16.94;62.44;102016.19;4839953;28;98344;-61
2021/03/29 08:08:25;;;;;;;2.58;1.00;;;;;;;17.27;61.69;102009.34;4840465;28;98708;-61
2021/03/29 08:11:12;;;;;;;3.10;0.90;;;;;;;17.48;61.79;102007.38;4834867;28;98218;-61
2021/03/29 08:13:49;;;;;;;3.22;0.80;;;;;;;17.56;61.71;102009.53;4840265;28;98020;-63
2021/03/29 08:16:22;;;;;;;2.65;0.80;;;;;;;17.50;62.20;102010.66;4839731;28;98241;-63
2021/03/29 08:19:20;;;;;;;3.95;1.00;;;;;;;17.63;62.11;102017.44;4833482;28;99084;-61
2021/03/29 08:21:50;;;;;;;4.93;1.13;;;;;;;17.64;62.12;102019.91;4836137;28;98078;-63
2021/03/29 08:24:30;;;;;;;3.50;0.90;;;;;;;17.75;61.85;102019.88;4832587;28;98125;-63
2021/03/29 08:26:58;;;;;;;3.40;1.10;;;;;;;18.04;61.01;102025.50;4839425;28;98209;-63
2021/03/29 08:29:31;;;;;;;3.97;0.80;;;;;;;18.28;60.51;102015.56;4837526;28;98198;-63
2021/03/29 08:32:17;;;;;;;3.17;0.90;;;;;;;18.72;59.72;102025.66;4839647;28;97998;-61
2021/03/29 08:35:00;;;;;;;3.85;0.93;;;;;;;18.94;59.32;102024.38;4839581;28;98116;-61
2021/03/29 08:37:47;;;;;;;3.15;1.00;;;;;;;19.49;58.21;102023.06;4839040;28;99145;-61
2021/03/29 08:40:16;;;;;;;3.92;1.40;;;;;;;21.13;54.71;102018.03;4838334;28;98060;-64
2021/03/29 08:42:45;;;;;;;3.90;1.30;;;;;;;22.61;51.60;102012.28;4834650;28;99393;-61
2021/03/29 08:45:16;;;;;;;3.42;0.80;;;;;;;22.64;52.36;102017.16;4839812;28;98281;-64
2021/03/29 08:47:43;;;;;;;2.50;0.82;;;;;;;22.81;52.52;102024.72;4839726;28;98541;-61
2021/03/29 08:50:18;;;;;;;4.68;1.13;;;;;;;23.08;52.67;102021.84;4839527;28;99172;-61
2021/03/29 08:52:49;;;;;;;3.40;0.80;;;;;;;23.13;52.00;102023.63;4834711;28;102594;-62
2021/03/29 08:55:29;;;;;;;2.95;0.90;;;;;;;23.31;51.69;102024.56;4839835;28;97873;-64
2021/03/29 08:57:55;;;;;;;3.45;0.73;;;;;;;23.30;52.19;102020.16;4840088;28;97985;-64
2021/03/29 09:00:27;;;;;;;3.42;0.90;;;;;;;23.23;51.93;102026.94;4838027;28;98306;-64
2021/03/29 09:02:53;;;;;;;3.10;0.82;;;;;;;23.31;51.84;102025.34;4834071;28;98151;-61
2021/03/29 09:05:21;;;;;;;3.63;0.75;;;;;;;23.34;51.99;102023.91;4836657;28;102636;-62
2021/03/29 09:07:54;;;;;;;4.30;0.77;;;;;;;23.22;52.13;102025.28;4839083;28;99079;-64
2021/03/29 09:10:36;;;;;;;4.20;0.90;;;;;;;22.97;53.20;102028.72;4839290;28;98119;-62
2021/03/29 09:13:10;;;;;;;3.25;0.90;;;;;;;22.67;53.35;102030.25;4839707;28;98066;-61
2021/03/29 09:15:44;;;;;;;3.42;0.95;;;;;;;22.54;53.47;102037.44;4839318;28;98090;-64
2021/03/29 09:18:15;;;;;;;4.10;1.02;;;;;;;22.62;53.14;102024.88;4839511;28;98553;-61
2021/03/29 09:20:43;;;;;;;3.87;0.80;;;;;;;23.07;51.95;102027.63;4833158;28;98730;-64
2021/03/29 09:23:13;;;;;;;3.78;0.90;;;;;;;23.21;51.81;102039.38;4837075;28;98379;-61
2021/03/29 09:25:45;;;;;;;4.15;0.98;;;;;;;23.68;50.66;102029.56;4840164;28;98038;-64
2021/03/29 09:28:18;;;;;;;3.67;1.02;;;;;;;24.39;49.62;102021.16;4842024;28;99127;-63
2021/03/29 09:30:50;;;;;;;2.38;0.60;;;;;;;25.50;47.40;102020.44;4841745;28;98571;-62
2021/03/29 09:33:16;;;;;;;3.42;0.90;;;;;;;25.70;47.08;102019.72;4855320;28;98175;-61
2021/03/29 09:35:44;;;;;;;3.10;0.70;;;;;;;25.41;48.46;102014.16;4855697;28;98046;-62
2021/03/29 09:38:12;;;;;;;3.55;0.80;;;;;;;25.32;48.33;102025.25;4839736;28;98513;-62
2021/03/29 09:40:38;;;;;;;3.35;0.73;;;;;;;25.54;47.77;102015.06;4841169;28;98492;-64
2021/03/29 09:43:05;;;;;;;3.85;0.82;;;;;;;25.41;48.18;102027.97;4841058;28;103203;-62
2021/03/29 09:45:33;;;;;;;2.92;0.70;;;;;;;25.26;48.01;102017.47;4834340;28;107825;-64
2021/03/29 09:48:07;;;;;;;6.03;1.80;;;;;;;23.88;39.59;102016.34;4834446;28;107097;-62
2021/03/29 09:50:44;;;;;;;5.32;1.90;;;;;;;23.24;37.68;102014.00;4835028;28;98257;-62
2021/03/29 09:53:18;;;;;;;6.93;1.80;;;;;;;22.20;38.27;102005.78;4836871;28;98062;-61
2021/03/29 09:55:49;;;;;;;6.63;2.03;;;;;;;21.47;38.66;102015.78;4840923;28;98092;-61
2021/03/29 09:58:23;;;;;;;5.30;2.10;;;;;;;20.67;38.19;102013.31;4841407;28;99059;-61
2021/03/29 10:00:52;;;;;;;7.10;2.22;;;;;;;20.45;37.67;102017.47;4839217;28;98896;-61
2021/03/29 10:03:19;;;;;;;5.80;1.80;;;;;;;19.94;37.85;102014.63;4836484;28;98157;-62
2021/03/29 10:05:46;;;;;;;8.00;2.35;;;;;;;19.36;38.97;102030.00;4839447;28;98176;-64
2021/03/29 10:08:28;;;;;;;6.93;2.28;;;;;;;19.08;40.02;102019.91;4841420;28;98429;-64
2021/03/29 10:11:08;;;;;;;7.72;2.30;;;;;;;18.77;40.07;102024.81;4854299;28;98743;-61
2021/03/29 10:13:41;;;;;;;6.53;2.20;;;;;;;18.49;40.51;102013.50;4841329;28;98014;-64
2021/03/29 10:16:23;;;;;;;5.68;2.50;;;;;;;18.22;39.33;102004.94;4837416;28;117972;-61
2021/03/29 10:19:21;;;;;;;7.38;2.90;;;;;;;18.12;39.36;101992.19;4840086;28;98808;-61
2021/03/29 10:22:09;;;;;;;7.05;2.67;;;;;;;17.79;41.21;101980.06;4839227;28;98714;-61
2021/03/29 10:24:37;;;;;;;6.45;2.20;;;;;;;17.93;42.83;101975.63;4836356;28;98025;-63
2021/03/29 10:27:08;;;;;;;6.95;1.85;;;;;;;18.26;44.35;101959.63;4841317;28;97964;-61
2021/03/29 10:29:41;;;;;;;5.10;1.60;;;;;;;18.43;44.53;101970.97;4841631;28;98132;-61
2021/03/29 10:32:17;;;;;;;5.20;1.40;;;;;;;18.60;45.40;101968.66;4840323;28;98899;-60
2021/03/29 10:34:44;;;;;;;6.43;1.60;;;;;;;18.76;46.41;101980.28;4841864;28;98003;-61
2021/03/29 10:37:23;;;;;;;5.90;1.52;;;;;;;18.95;46.39;101987.78;4839957;28;97938;-63
2021/03/29 10:39:51;;;;;;;5.35;1.60;;;;;;;19.14;46.88;101985.97;4839908;28;99608;-63
2021/03/29 10:42:17;;;;;;;4.43;1.30;;;;;;;19.40;46.69;101978.31;4837562;28;99124;-61
2021/03/29 10:44:43;;;;;;;4.85;1.30;;;;;;;19.50;47.84;101985.59;4833324;28;98602;-63
2021/03/29 10:47:10;;;;;;;4.13;1.13;;;;;;;19.59;48.02;101981.09;4841083;28;97887;-63
2021/03/29 10:49:36;;;;;;;3.92;1.15;;;;;;;19.72;48.73;101993.28;4853622;28;98474;-63
2021/03/29 10:52:02;;;;;;;3.85;1.08;;;;;;;19.80;48.93;101979.75;4841532;28;99290;-63
2021/03/29 10:54:29;;;;;;;5.43;1.20;;;;;;;19.85;49.31;101982.44;4839947;28;117032;-61
2021/03/29 10:56:55;;;;;;;3.90;1.15;;;;;;;20.31;48.34;101978.25;4840294;28;117911;-61
2021/03/29 10:59:21;;;;;;;3.22;0.95;;;;;;;20.67;47.96;101983.19;4840643;28;110581;-61
2021/03/29 11:01:47;;;;;;;3.72;1.10;;;;;;;21.05;47.17;101967.47;4836850;28;128037;-61
2021/03/29 11:04:14;;;;;;;5.68;1.10;;;;;;;21.85;45.73;101979.06;4835746;28;112983;-64
2021/03/29 11:06:40;;;;;;;4.05;1.25;;;;;;;23.25;43.71;101968.84;4839742;28;117969;-61
2021/03/29 11:09:07;;;;;;;3.55;0.80;;;;;;;24.92;40.50;101948.28;4840345;28;98303;-64
2021/03/29 11:11:33;;;;;;;4.40;1.10;;;;;;;26.83;37.80;101960.00;4837221;28;98727;-64
2021/03/29 11:13:59;;;;;;;4.18;0.90;;;;;;;28.52;35.36;101962.16;4840669;28;101449;-61
2021/03/29 11:16:26;;;;;;;3.53;0.88;;;;;;;30.16;33.23;101975.72;4839923;28;112343;-61
2021/03/29 11:18:52;;;;;;;3.47;1.00;;;;;;;31.69;31.55;101972.09;4839836;28;98212;-62
2021/03/29 11:21:18;;;;;;;3.80;0.63;;;;;;;32.46;30.84;101977.13;4833094;28;99012;-62
2021/03/29 11:23:45;;;;;;;3.83;0.90;;;;;;;32.49;31.25;101984.72;4840303;28;98310;-65
2021/03/29 11:26:11;;;;;;;1.85;0.43;;;;;;;31.31;33.74;101964.75;4840356;28;102715;-65
2021/03/29 11:28:37;;;;;;;3.80;0.73;;;;;;;31.57;33.55;101964.78;4839584;28;127300;-65
2021/03/29 11:31:03;;;;;;;2.38;0.60;;;;;;;31.73;33.36;101968.19;4839989;28;99123;-62
2021/03/29 11:33:29;;;;;;;2.55;0.82;;;;;;;30.55;35.67;101957.84;4833858;28;99161;-63
2021/03/29 11:35:55;;;;;;;2.80;0.60;;;;;;;30.59;35.50;101959.88;4838955;28;107125;-65
2021/03/29 11:38:22;;;;;;;2.92;0.88;;;;;;;31.62;33.76;101955.28;4850924;28;118435;-62